Time;durP1;ratioP1;P1;durP2;ratioP2;P2;SDS_P1;SDS_P2;PMS_P1;PMS_P2;Temp;Humidity;BMP_temperature;BMP_pressure;BME280_temperature;BME280_humidity;BME280_pressure;Samples;Min_cycle;Max_cycle;Signal;HPM_P1;HPM_P2
2022/02/11 00:06:31;;;;;;;13.20;8.40;;;14.10;48.80;;;;;;5102191;28;20451;-46
2022/02/11 00:08:57;;;;;;;8.60;7.70;;;14.00;49.00;;;;;;5102425;28;20432;-47
2022/02/11 00:11:34;;;;;;;12.63;8.57;;;13.90;49.10;;;;;;5103756;28;20545;-47
2022/02/11 00:14:00;;;;;;;10.80;8.90;;;13.80;49.10;;;;;;5101544;28;20485;-47
2022/02/11 00:16:26;;;;;;;12.43;7.90;;;13.80;49.30;;;;;;5105343;28;20429;-46
2022/02/11 00:18:51;;;;;;;11.13;8.90;;;13.70;49.30;;;;;;5112110;28;20904;-47
2022/02/11 00:21:21;;;;;;;9.87;8.80;;;13.60;49.40;;;;;;5107671;28;21768;-46
2022/02/11 00:23:47;;;;;;;9.77;8.77;;;13.60;49.50;;;;;;5104752;28;20202;-46
2022/02/11 00:26:13;;;;;;;14.13;8.20;;;13.60;49.50;;;;;;5106109;28;20441;-46
2022/02/11 00:34:07;;;;;;;7.80;6.93;;;13.40;50.40;;;;;;5099323;28;20517;-46
2022/02/11 00:36:55;;;;;;;13.47;8.97;;;13.40;50.60;;;;;;5104242;28;20436;-45
2022/02/11 00:39:51;;;;;;;13.37;7.83;;;13.40;50.80;;;;;;5099730;28;20282;-46
2022/02/11 01:04:03;;;;;;;13.23;8.37;;;13.20;51.10;;;;;;5100102;28;20459;-49
2022/02/11 01:06:30;;;;;;;6.70;5.90;;;13.10;50.80;;;;;;5098264;28;20928;-46
2022/02/11 01:08:56;;;;;;;7.40;5.60;;;12.90;50.80;;;;;;5098638;28;20448;-45
2022/02/11 01:13:51;;;;;;;8.77;6.40;;;12.50;51.50;;;;;;5098609;28;20444;-47
2022/02/11 01:16:22;;;;;;;6.43;4.90;;;12.30;52.00;;;;;;5100149;28;21015;-46
2022/02/11 01:18:55;;;;;;;6.00;5.40;;;12.20;52.40;;;;;;5099654;28;20278;-48
2022/02/11 01:21:31;;;;;;;6.10;5.10;;;12.30;52.30;;;;;;5098718;28;20476;-46
2022/02/11 01:24:35;;;;;;;8.13;5.90;;;12.20;52.20;;;;;;5104292;28;20535;-46
2022/02/11 01:37:27;;;;;;;7.97;6.27;;;12.00;53.30;;;;;;5103709;28;20555;-45
2022/02/11 01:48:10;;;;;;;6.30;4.90;;;11.90;52.60;;;;;;5099826;28;20449;-46
2022/02/11 01:50:51;;;;;;;7.63;5.33;;;11.80;52.30;;;;;;5102097;28;20449;-45
2022/02/11 02:04:28;;;;;;;5.40;4.30;;;12.00;51.00;;;;;;5098445;28;20461;-46
2022/02/11 02:25:26;;;;;;;5.23;3.90;;;11.60;50.90;;;;;;5099740;28;20437;-45
2022/02/11 02:33:19;;;;;;;6.50;3.43;;;11.20;52.80;;;;;;5097977;28;20519;-46
2022/02/11 03:34:55;;;;;;;2.60;2.30;;;9.50;64.10;;;;;;5104825;28;20535;-45
2022/02/11 04:56:29;;;;;;;1.80;1.70;;;8.70;63.20;;;;;;5036312;28;20440;-45
2022/02/11 05:01:41;;;;;;;2.20;1.97;;;8.70;63.10;;;;;;5099031;28;20498;-46
2022/02/11 05:04:06;;;;;;;6.63;2.17;;;8.70;63.20;;;;;;5096262;28;20533;-45
2022/02/11 05:06:32;;;;;;;2.13;1.93;;;8.80;63.30;;;;;;5101313;28;20432;-45
2022/02/11 05:08:59;;;;;;;2.97;2.73;;;8.60;63.90;;;;;;5097645;28;20202;-46
2022/02/11 05:11:25;;;;;;;2.80;2.60;;;8.70;63.60;;;;;;5102262;28;20368;-45
2022/02/11 05:13:50;;;;;;;3.13;2.83;;;8.50;63.90;;;;;;5101230;28;20897;-44
2022/02/11 05:16:16;;;;;;;3.23;2.93;;;8.50;63.90;;;;;;5097839;28;20756;-44
2022/02/11 05:18:42;;;;;;;4.20;3.40;;;8.40;64.20;;;;;;5101315;28;20540;-46
2022/02/11 05:21:07;;;;;;;3.60;3.30;;;8.40;64.20;;;;;;5105852;28;20239;-45
2022/02/11 05:23:33;;;;;;;4.10;3.70;;;8.50;63.90;;;;;;5097718;28;20719;-48
2022/02/11 05:25:58;;;;;;;4.60;4.13;;;8.60;63.50;;;;;;5104682;28;20646;-46
2022/02/11 05:28:24;;;;;;;4.97;3.73;;;8.60;63.60;;;;;;5096853;28;20607;-44
2022/02/11 05:30:49;;;;;;;3.47;3.17;;;8.60;63.80;;;;;;5101042;28;20198;-44
2022/02/11 05:33:15;;;;;;;3.83;3.03;;;8.50;63.90;;;;;;5096615;28;20195;-46
2022/02/11 05:35:41;;;;;;;4.17;3.77;;;8.50;64.20;;;;;;5098684;28;20190;-46
2022/02/11 05:38:07;;;;;;;3.93;3.37;;;8.40;64.00;;;;;;5102178;28;20191;-45
2022/02/11 05:40:34;;;;;;;4.30;3.90;;;8.30;63.90;;;;;;5098308;28;20786;-45
2022/02/11 05:42:59;;;;;;;4.10;3.70;;;8.40;64.20;;;;;;5105296;28;20250;-45
2022/02/11 05:45:25;;;;;;;3.77;3.47;;;8.40;63.90;;;;;;5099637;28;20522;-44
2022/02/11 05:47:50;;;;;;;3.87;3.33;;;8.50;63.60;;;;;;5098195;28;20650;-46
2022/02/11 05:50:16;;;;;;;4.50;4.07;;;8.50;63.50;;;;;;5102214;28;20183;-45
2022/02/11 05:52:41;;;;;;;4.80;3.60;;;8.50;63.90;;;;;;5103312;28;20193;-45
2022/02/11 05:55:08;;;;;;;3.53;3.27;;;8.50;63.60;;;;;;5103991;28;20195;-45
2022/02/11 05:57:33;;;;;;;4.50;4.10;;;8.60;63.00;;;;;;5099967;28;20195;-47
2022/02/11 06:00:01;;;;;;;4.43;4.00;;;8.70;63.00;;;;;;5101852;28;20440;-45
2022/02/11 06:02:27;;;;;;;5.33;4.43;;;8.40;63.50;;;;;;5101374;28;20588;-45
2022/02/11 06:04:53;;;;;;;5.10;4.40;;;8.40;63.80;;;;;;5101442;28;20440;-47
2022/02/11 06:07:18;;;;;;;4.33;3.93;;;8.60;63.40;;;;;;5098868;28;20225;-44
2022/02/11 06:09:44;;;;;;;4.90;4.50;;;8.80;63.00;;;;;;5103907;28;20190;-46
2022/02/11 06:12:10;;;;;;;4.97;4.57;;;8.90;62.40;;;;;;5099004;28;20259;-46
2022/02/11 06:14:37;;;;;;;4.80;4.40;;;8.90;62.00;;;;;;5097871;28;20197;-45
2022/02/11 06:17:03;;;;;;;5.50;5.00;;;8.90;61.60;;;;;;5105247;28;20963;-48
2022/02/11 06:19:29;;;;;;;4.97;4.33;;;8.80;62.00;;;;;;5106373;28;20489;-47
2022/02/11 06:21:55;;;;;;;4.90;4.40;;;8.60;62.30;;;;;;5105643;28;20484;-45
2022/02/11 06:24:20;;;;;;;4.70;4.30;;;8.60;62.60;;;;;;5093928;28;20191;-44
2022/02/11 06:26:46;;;;;;;4.83;4.33;;;8.50;62.70;;;;;;5113220;28;20218;-45
2022/02/11 06:29:13;;;;;;;4.60;3.60;;;8.50;63.20;;;;;;5104820;28;20277;-47
2022/02/11 06:31:38;;;;;;;5.00;4.50;;;8.60;63.20;;;;;;5105723;27;20203;-49
2022/02/11 06:34:06;;;;;;;4.00;3.60;;;8.50;63.60;;;;;;5104817;28;20455;-47
2022/02/11 06:36:32;;;;;;;4.00;3.60;;;8.60;63.30;;;;;;5097500;28;20198;-49
2022/02/11 06:38:58;;;;;;;4.43;3.60;;;8.70;63.30;;;;;;5102424;28;20443;-45
2022/02/11 06:41:23;;;;;;;3.53;3.23;;;8.80;62.60;;;;;;5101963;28;20429;-46
2022/02/11 06:43:49;;;;;;;3.37;3.07;;;8.70;63.00;;;;;;5103477;28;20194;-45
2022/02/11 06:46:17;;;;;;;3.80;3.00;;;8.90;63.00;;;;;;5106113;28;20206;-45
2022/02/11 06:48:43;;;;;;;5.10;3.37;;;8.90;61.90;;;;;;5097124;28;20198;-45
2022/02/11 06:51:08;;;;;;;4.50;3.87;;;9.10;61.70;;;;;;5107265;28;20440;-46
2022/02/11 06:53:36;;;;;;;3.80;3.50;;;9.30;61.10;;;;;;5104409;28;20440;-46
2022/02/11 06:56:02;;;;;;;5.77;3.77;;;9.50;60.10;;;;;;5107655;28;20194;-45
2022/02/11 06:58:28;;;;;;;3.97;3.50;;;9.60;59.80;;;;;;5102876;28;20432;-46
2022/02/11 07:00:54;;;;;;;4.10;3.50;;;9.60;59.60;;;;;;5104833;28;20459;-46
2022/02/11 07:03:20;;;;;;;4.43;3.40;;;9.80;59.90;;;;;;5101653;28;20218;-45
2022/02/11 07:05:46;;;;;;;3.60;3.30;;;10.10;58.70;;;;;;5111152;28;20500;-46
2022/02/11 07:08:13;;;;;;;4.40;3.63;;;10.20;58.00;;;;;;5112634;28;20217;-46
2022/02/11 07:10:38;;;;;;;5.70;4.00;;;10.30;57.50;;;;;;5103990;28;20563;-45
2022/02/11 07:13:04;;;;;;;4.90;3.77;;;10.20;57.10;;;;;;5109824;28;20527;-46
2022/02/11 07:15:34;;;;;;;4.47;3.40;;;10.10;57.30;;;;;;5103516;28;20183;-45
2022/02/11 07:18:00;;;;;;;5.07;3.87;;;10.20;57.70;;;;;;5105446;28;20285;-45
2022/02/11 07:20:26;;;;;;;4.17;3.77;;;10.40;57.30;;;;;;5101171;28;20507;-45
2022/02/11 07:22:52;;;;;;;67.97;36.33;;;10.60;57.10;;;;;;5104233;28;20480;-45
2022/02/11 07:25:17;;;;;;;120.17;57.53;;;10.80;56.50;;;;;;5113424;28;20218;-45
2022/02/11 07:27:43;;;;;;;325.90;134.47;;;10.90;56.00;;;;;;5113141;28;20194;-45
2022/02/11 07:30:09;;;;;;;55.97;31.23;;;10.90;55.40;;;;;;5103416;28;20194;-46
2022/02/11 07:32:35;;;;;;;17.53;9.80;;;10.90;55.60;;;;;;5110865;28;20232;-47
2022/02/11 07:35:02;;;;;;;7.40;4.83;;;10.90;55.50;;;;;;5112388;28;20201;-48
2022/02/11 07:37:30;;;;;;;14.20;8.73;;;10.90;55.50;;;;;;5098893;27;20425;-45
2022/02/11 07:39:58;;;;;;;7.53;4.90;;;10.90;55.40;;;;;;5106632;28;20782;-45
2022/02/11 07:42:25;;;;;;;7.63;4.40;;;10.90;55.20;;;;;;5105880;28;20994;-46
2022/02/11 07:44:52;;;;;;;5.67;4.33;;;10.70;55.30;;;;;;5104574;28;20539;-46
2022/02/11 07:47:18;;;;;;;6.00;4.53;;;10.60;55.50;;;;;;5113081;28;21111;-47
2022/02/11 07:49:44;;;;;;;5.43;4.30;;;10.50;55.80;;;;;;5112175;28;20436;-45
2022/02/11 07:52:10;;;;;;;4.87;4.47;;;10.50;56.30;;;;;;5103974;28;20842;-45
2022/02/11 07:54:35;;;;;;;4.53;3.90;;;10.50;56.10;;;;;;5113336;28;20210;-45
2022/02/11 07:57:01;;;;;;;4.87;3.13;;;10.40;56.00;;;;;;5105456;28;20464;-45
2022/02/11 07:59:27;;;;;;;4.40;3.30;;;10.40;56.00;;;;;;5098431;28;20199;-45
2022/02/11 08:01:52;;;;;;;4.13;3.73;;;10.00;56.10;;;;;;5111469;28;20686;-47
2022/02/11 08:04:18;;;;;;;4.60;3.10;;;9.70;57.30;;;;;;5110783;28;20251;-46
2022/02/11 08:06:43;;;;;;;3.67;3.30;;;9.80;57.80;;;;;;5110229;28;20195;-46
2022/02/11 08:09:09;;;;;;;3.87;3.40;;;9.80;57.80;;;;;;5107785;28;20273;-45
2022/02/11 08:11:35;;;;;;;3.43;3.13;;;9.80;57.70;;;;;;5096139;28;20195;-45
2022/02/11 08:14:01;;;;;;;3.50;3.20;;;9.80;57.50;;;;;;5105115;28;20197;-45
2022/02/11 08:16:27;;;;;;;4.27;3.10;;;9.90;57.50;;;;;;5105754;28;20192;-45
2022/02/11 08:18:52;;;;;;;4.63;3.37;;;9.80;56.90;;;;;;5110500;28;20413;-45
2022/02/11 08:21:19;;;;;;;4.47;2.67;;;9.50;57.10;;;;;;5102435;28;20645;-47
2022/02/11 08:23:45;;;;;;;4.10;2.90;;;9.60;57.40;;;;;;5100377;28;20843;-45
2022/02/11 08:26:11;;;;;;;4.70;3.40;;;9.60;57.30;;;;;;5097675;28;20444;-45
2022/02/11 08:28:36;;;;;;;5.00;3.20;;;9.60;57.50;;;;;;5092948;28;20202;-45
2022/02/11 08:31:02;;;;;;;4.37;3.00;;;9.70;57.40;;;;;;5100470;28;20440;-46
2022/02/11 08:33:28;;;;;;;5.67;3.13;;;9.60;57.10;;;;;;5103609;28;20672;-46
2022/02/11 08:35:56;;;;;;;5.40;3.40;;;9.60;56.90;;;;;;5107483;28;20436;-47
2022/02/11 08:38:24;;;;;;;4.03;3.13;;;9.40;56.90;;;;;;5105272;28;20247;-46
2022/02/11 08:40:50;;;;;;;3.70;2.87;;;9.30;57.10;;;;;;5102494;28;20432;-46
2022/02/11 08:43:16;;;;;;;3.77;2.97;;;9.40;57.10;;;;;;5104313;28;20526;-45
2022/02/11 08:45:42;;;;;;;7.10;3.10;;;9.20;56.80;;;;;;5103266;28;20523;-44
2022/02/11 08:48:09;;;;;;;4.57;2.87;;;9.00;56.50;;;;;;5103591;28;21049;-45
2022/02/11 08:50:36;;;;;;;4.60;2.60;;;8.90;57.00;;;;;;5106978;28;20531;-44
2022/02/11 08:53:03;;;;;;;2.83;2.23;;;8.90;56.90;;;;;;5103348;28;20919;-44
2022/02/11 08:55:29;;;;;;;5.80;3.03;;;8.70;57.00;;;;;;5109268;28;20432;-46
2022/02/11 08:57:59;;;;;;;5.13;2.90;;;8.70;57.40;;;;;;5108907;28;20443;-46
2022/02/11 09:00:28;;;;;;;4.33;2.60;;;8.90;57.10;;;;;;5109596;28;20202;-39
2022/02/11 09:02:58;;;;;;;2.60;2.30;;;9.00;56.60;;;;;;5095930;28;20506;-40
2022/02/11 09:05:26;;;;;;;7.40;2.63;;;9.20;56.40;;;;;;5104694;28;20484;-40
2022/02/11 09:07:53;;;;;;;3.37;2.63;;;9.20;56.20;;;;;;5098151;28;20440;-40
2022/02/11 09:10:21;;;;;;;6.93;2.97;;;9.30;56.30;;;;;;5103579;28;20436;-40
2022/02/11 09:12:46;;;;;;;4.20;2.90;;;9.50;56.00;;;;;;5107128;28;20436;-40
2022/02/11 09:15:12;;;;;;;5.80;2.67;;;9.40;55.50;;;;;;5097678;28;20567;-40
2022/02/11 09:17:38;;;;;;;5.77;2.63;;;9.30;55.10;;;;;;5099848;28;20198;-40
2022/02/11 09:20:04;;;;;;;2.83;2.50;;;9.50;55.40;;;;;;5100747;28;20198;-40
2022/02/11 09:22:30;;;;;;;3.23;2.50;;;9.40;54.90;;;;;;5108799;28;20600;-40
2022/02/11 09:24:56;;;;;;;2.50;2.30;;;9.40;54.70;;;;;;5109218;28;20441;-40
2022/02/11 09:27:22;;;;;;;5.70;3.00;;;9.40;54.80;;;;;;5100741;28;20443;-40
2022/02/11 09:29:48;;;;;;;4.80;2.73;;;9.40;53.70;;;;;;5102251;28;20428;-40
2022/02/11 09:32:15;;;;;;;4.77;2.70;;;9.50;54.10;;;;;;5099736;28;20540;-40
2022/02/11 09:34:40;;;;;;;9.00;2.70;;;9.50;53.40;;;;;;5108633;28;20420;-40
2022/02/11 09:37:06;;;;;;;6.67;2.37;;;9.30;53.20;;;;;;5098942;28;20457;-40
2022/02/11 09:39:31;;;;;;;10.10;3.17;;;9.10;53.30;;;;;;5102601;28;20187;-39
2022/02/11 09:41:58;;;;;;;4.37;2.13;;;9.50;53.50;;;;;;5097536;28;20409;-39
2022/02/11 09:44:27;;;;;;;3.33;2.10;;;9.70;52.40;;;;;;5104110;28;20190;-40
2022/02/11 09:46:54;;;;;;;5.10;2.50;;;9.90;51.60;;;;;;5103641;28;20510;-40
2022/02/11 09:49:20;;;;;;;6.90;2.10;;;10.10;50.50;;;;;;5094235;28;20559;-40
2022/02/11 09:51:47;;;;;;;6.47;2.23;;;10.00;50.40;;;;;;5101125;28;20441;-40
2022/02/11 09:54:22;;;;;;;4.43;2.10;;;10.10;49.30;;;;;;5103748;28;20838;-40
2022/02/11 09:56:51;;;;;;;4.13;2.27;;;10.10;48.70;;;;;;5114123;28;20787;-40
2022/02/11 09:59:17;;;;;;;6.60;2.40;;;10.00;48.40;;;;;;5104207;28;20428;-40
2022/02/11 10:01:44;;;;;;;4.33;2.37;;;10.10;48.30;;;;;;5107209;28;20432;-40
2022/02/11 10:04:12;;;;;;;2.57;2.00;;;10.30;48.10;;;;;;5095960;28;20544;-40
2022/02/11 10:06:39;;;;;;;4.20;2.33;;;10.10;47.50;;;;;;5109272;28;20432;-40
2022/02/11 10:09:05;;;;;;;7.67;2.23;;;10.30;48.10;;;;;;5106190;28;20444;-41
2022/02/11 10:11:32;;;;;;;4.43;2.10;;;10.60;48.40;;;;;;5104915;28;20447;-41
2022/02/11 10:14:36;;;;;;;5.13;2.57;;;10.80;48.00;;;;;;5105578;28;20944;-41
2022/02/11 10:17:05;;;;;;;5.97;2.47;;;10.70;47.60;;;;;;5109559;28;20812;-41
2022/02/11 10:19:51;;;;;;;3.03;2.30;;;10.60;47.90;;;;;;5110041;28;20432;-42
2022/02/11 10:22:20;;;;;;;3.70;2.13;;;10.60;47.90;;;;;;5101522;28;20491;-41
2022/02/11 10:24:48;;;;;;;4.10;2.10;;;10.50;47.80;;;;;;5099648;28;20445;-41
2022/02/11 10:27:28;;;;;;;4.80;1.80;;;10.30;48.60;;;;;;5104253;28;20436;-41
2022/02/11 10:29:59;;;;;;;4.37;2.03;;;10.50;49.00;;;;;;5095843;28;20475;-41
2022/02/11 10:32:46;;;;;;;4.90;2.37;;;10.70;48.90;;;;;;5098308;28;20585;-41
2022/02/11 10:35:14;;;;;;;7.47;2.83;;;10.70;48.40;;;;;;5104638;28;20894;-41
2022/02/11 10:38:07;;;;;;;2.27;2.07;;;10.30;49.00;;;;;;5102463;28;20432;-41
2022/02/11 10:40:34;;;;;;;4.80;2.00;;;10.30;49.20;;;;;;5109087;28;20497;-41
2022/02/11 10:43:00;;;;;;;2.97;1.83;;;10.20;49.40;;;;;;5104970;28;20606;-41
2022/02/11 10:45:39;;;;;;;5.27;1.90;;;10.10;49.40;;;;;;5095879;28;20508;-41
2022/02/11 10:48:14;;;;;;;2.90;1.97;;;10.00;49.50;;;;;;5101290;28;20202;-41
2022/02/11 10:50:40;;;;;;;11.57;2.60;;;10.20;50.00;;;;;;5109056;28;20446;-41
2022/02/11 10:53:07;;;;;;;3.60;2.57;;;10.30;49.90;;;;;;5100191;28;20516;-41
2022/02/11 10:55:32;;;;;;;4.53;2.53;;;10.40;49.40;;;;;;5106988;28;20425;-41
2022/02/11 10:57:59;;;;;;;2.33;2.13;;;10.20;49.40;;;;;;5101907;28;20437;-41
2022/02/11 11:00:26;;;;;;;7.03;2.57;;;10.50;49.70;;;;;;5096107;28;20230;-42
2022/02/11 11:02:51;;;;;;;5.17;2.00;;;10.50;48.90;;;;;;5107194;28;20483;-41
2022/02/11 11:05:17;;;;;;;3.30;2.57;;;10.30;48.80;;;;;;5104254;28;20429;-41
2022/02/11 11:07:44;;;;;;;4.10;2.30;;;10.20;49.40;;;;;;5108329;28;20229;-41
2022/02/11 11:10:14;;;;;;;4.80;2.60;;;10.20;49.20;;;;;;5100454;28;20193;-41
2022/02/11 11:12:43;;;;;;;2.97;2.30;;;10.30;49.50;;;;;;5108110;28;20432;-41
2022/02/11 11:15:09;;;;;;;5.97;2.60;;;10.20;49.50;;;;;;5109596;28;20428;-41
2022/02/11 11:17:40;;;;;;;3.43;3.13;;;10.10;49.20;;;;;;5097209;28;20444;-42
2022/02/11 11:20:07;;;;;;;6.50;2.80;;;10.20;49.80;;;;;;5095032;28;21943;-41
2022/02/11 11:22:38;;;;;;;4.60;2.37;;;10.30;49.80;;;;;;5108254;28;21071;-41
2022/02/11 11:25:05;;;;;;;4.00;2.40;;;10.40;49.70;;;;;;5103603;28;20422;-41
2022/02/11 11:30:54;;;;;;;2.93;2.57;;;10.50;49.10;;;;;;5175417;22;21061;-41
2022/02/11 11:33:20;;;;;;;6.03;2.67;;;10.30;48.80;;;;;;5041324;28;20501;-42
2022/02/11 11:35:46;;;;;;;5.73;2.90;;;10.30;49.70;;;;;;5047105;28;20483;-41
2022/02/11 11:38:12;;;;;;;4.33;2.87;;;10.40;50.10;;;;;;5035394;28;20863;-42
2022/02/11 11:40:54;;;;;;;6.37;2.97;;;10.40;50.00;;;;;;5037950;28;20189;-42
2022/02/11 11:43:41;;;;;;;8.90;2.70;;;10.50;49.50;;;;;;5044756;28;20490;-42
2022/02/11 11:46:15;;;;;;;6.17;2.30;;;10.40;49.40;;;;;;5046349;28;20437;-42
2022/02/11 11:49:03;;;;;;;3.13;2.10;;;10.20;49.80;;;;;;5048646;28;20450;-42
2022/02/11 11:51:35;;;;;;;3.30;2.20;;;10.10;49.20;;;;;;5045803;28;20448;-42
2022/02/11 11:54:20;;;;;;;4.53;2.10;;;10.20;49.50;;;;;;5051318;28;20428;-42
2022/02/11 11:57:09;;;;;;;6.80;2.57;;;10.20;49.40;;;;;;5046330;28;20474;-42
2022/02/11 11:59:48;;;;;;;4.17;2.33;;;10.20;49.40;;;;;;5043818;28;20439;-42
2022/02/11 12:02:22;;;;;;;6.37;2.20;;;9.80;49.80;;;;;;5040675;28;20883;-42
2022/02/11 12:04:51;;;;;;;4.93;2.03;;;10.00;48.70;;;;;;5040850;28;20442;-42
2022/02/11 12:07:19;;;;;;;3.53;2.17;;;10.10;49.00;;;;;;5042120;28;20545;-42
2022/02/11 12:09:47;;;;;;;2.87;2.33;;;10.30;49.00;;;;;;5045688;28;20911;-42
2022/02/11 12:12:15;;;;;;;3.50;1.50;;;10.10;48.80;;;;;;5038202;28;20440;-42
2022/02/11 12:14:43;;;;;;;2.57;1.80;;;10.30;48.40;;;;;;5039938;28;20479;-42
2022/02/11 12:17:10;;;;;;;3.23;2.03;;;10.40;48.00;;;;;;5041112;28;20434;-42
2022/02/11 12:19:37;;;;;;;2.90;1.90;;;10.60;47.50;;;;;;5040605;28;20428;-42
2022/02/11 12:22:07;;;;;;;3.40;1.83;;;10.60;46.30;;;;;;5042545;28;20525;-42
2022/02/11 12:27:31;;;;;;;5.00;2.20;;;10.70;46.50;;;;;;5041578;28;20439;-41
2022/02/11 12:30:00;;;;;;;3.13;2.00;;;10.50;46.40;;;;;;5042878;28;20483;-41
2022/02/11 12:32:39;;;;;;;4.07;2.20;;;10.60;45.80;;;;;;5042663;28;20436;-41
2022/02/11 12:35:23;;;;;;;4.67;2.63;;;10.70;45.80;;;;;;5039326;28;20440;-41
2022/02/11 12:37:49;;;;;;;3.40;2.20;;;10.60;46.30;;;;;;5037430;28;20573;-41
2022/02/11 12:40:25;;;;;;;4.50;1.93;;;10.60;46.80;;;;;;5045959;28;20875;-42
2022/02/11 12:42:54;;;;;;;4.33;2.10;;;10.70;46.70;;;;;;5049917;28;20842;-41
2022/02/11 12:45:45;;;;;;;3.80;2.00;;;10.70;46.40;;;;;;5041349;28;20874;-41
2022/02/11 12:48:14;;;;;;;3.47;2.30;;;10.70;47.70;;;;;;5050508;28;20440;-41
2022/02/11 12:50:53;;;;;;;4.90;2.13;;;10.50;45.90;;;;;;5043772;28;20952;-41
2022/02/11 12:53:20;;;;;;;3.10;2.17;;;10.40;45.60;;;;;;5037443;28;20526;-41
2022/02/11 12:55:52;;;;;;;4.87;1.63;;;10.40;46.20;;;;;;5042204;28;20436;-41
2022/02/11 12:58:20;;;;;;;3.27;1.90;;;10.50;46.10;;;;;;5038588;28;20531;-41
2022/02/11 13:00:47;;;;;;;4.07;1.80;;;10.30;45.60;;;;;;5035421;28;20446;-41
2022/02/11 13:03:14;;;;;;;3.17;2.37;;;10.40;45.80;;;;;;5043127;28;20486;-41
2022/02/11 13:05:45;;;;;;;3.93;2.10;;;10.40;46.10;;;;;;5043846;28;20428;-41
2022/02/11 13:08:21;;;;;;;2.00;1.80;;;10.40;46.30;;;;;;5041572;28;20443;-41
2022/02/11 13:11:04;;;;;;;2.40;2.07;;;10.40;46.30;;;;;;5042120;28;20450;-41
2022/02/11 13:13:31;;;;;;;2.70;1.97;;;10.40;46.20;;;;;;5034513;28;20811;-41
2022/02/11 13:15:58;;;;;;;6.50;2.50;;;10.50;46.30;;;;;;5042388;28;20496;-41
2022/02/11 13:18:30;;;;;;;2.00;1.50;;;10.50;46.60;;;;;;5042815;28;20442;-41
2022/02/11 13:21:09;;;;;;;6.03;2.33;;;10.40;46.40;;;;;;5043514;28;20518;-41
2022/02/11 13:23:35;;;;;;;4.83;2.10;;;10.20;46.60;;;;;;5037641;28;20513;-41
2022/02/11 13:26:10;;;;;;;7.47;1.97;;;10.10;46.90;;;;;;5035229;28;20432;-41
2022/02/11 13:28:48;;;;;;;2.80;2.23;;;10.30;47.10;;;;;;5034009;28;20431;-41
2022/02/11 13:31:14;;;;;;;6.07;2.67;;;10.30;46.70;;;;;;5037162;28;20471;-41
2022/02/11 13:33:40;;;;;;;4.40;2.03;;;10.30;46.60;;;;;;5041313;28;20455;-41
2022/02/11 13:36:11;;;;;;;4.60;2.27;;;10.20;46.70;;;;;;5040626;28;20842;-41
2022/02/11 13:38:39;;;;;;;10.93;2.37;;;10.20;46.60;;;;;;5038141;28;20432;-41
2022/02/11 13:41:09;;;;;;;4.03;2.00;;;10.40;46.10;;;;;;5038650;28;20434;-41
2022/02/11 13:43:52;;;;;;;10.30;3.07;;;10.60;46.30;;;;;;5042580;28;20471;-41
2022/02/11 13:46:39;;;;;;;2.90;2.00;;;10.60;46.20;;;;;;5040651;28;20443;-41
2022/02/11 13:49:09;;;;;;;3.10;2.30;;;10.70;46.00;;;;;;5038105;28;20446;-41
2022/02/11 13:51:37;;;;;;;4.43;2.00;;;10.60;45.70;;;;;;5038183;28;20945;-41
2022/02/11 13:54:12;;;;;;;4.47;1.90;;;10.90;45.90;;;;;;5035035;28;20451;-41
2022/02/11 13:56:40;;;;;;;2.73;1.70;;;11.10;45.90;;;;;;5041505;28;20453;-41
2022/02/11 13:59:30;;;;;;;4.10;1.93;;;11.20;45.10;;;;;;5044065;28;20447;-42
2022/02/11 14:02:22;;;;;;;4.50;2.20;;;11.40;44.90;;;;;;5028687;28;20467;-41
2022/02/11 14:05:03;;;;;;;4.07;1.83;;;11.50;44.80;;;;;;5034251;28;20458;-42
2022/02/11 14:07:29;;;;;;;3.60;2.20;;;11.60;44.70;;;;;;5039390;28;20451;-42
2022/02/11 14:09:54;;;;;;;3.13;1.67;;;11.90;44.80;;;;;;5038247;28;20452;-41
2022/02/11 14:12:20;;;;;;;2.20;1.70;;;12.30;44.50;;;;;;5050515;28;20188;-41
2022/02/11 14:14:57;;;;;;;2.73;2.10;;;12.40;43.00;;;;;;5047773;28;20268;-41
2022/02/11 14:17:24;;;;;;;5.27;2.43;;;12.30;42.60;;;;;;5039498;28;20220;-41
2022/02/11 14:19:49;;;;;;;3.50;1.83;;;12.00;41.80;;;;;;5033099;28;20972;-41
2022/02/11 14:22:16;;;;;;;2.83;1.70;;;11.80;42.40;;;;;;5038563;28;20468;-42
2022/02/11 14:24:42;;;;;;;3.93;1.80;;;11.80;43.00;;;;;;5034076;28;20242;-42
2022/02/11 14:27:08;;;;;;;2.37;1.73;;;12.00;43.30;;;;;;5045659;28;20431;-41
2022/02/11 14:29:34;;;;;;;3.17;2.07;;;11.90;43.00;;;;;;5049196;28;20275;-42
2022/02/11 14:31:59;;;;;;;5.73;1.87;;;12.00;42.80;;;;;;5048883;28;20204;-42
2022/02/11 14:34:25;;;;;;;6.90;1.70;;;11.40;41.50;;;;;;5046416;28;20432;-42
2022/02/11 14:36:50;;;;;;;2.27;1.47;;;11.30;41.80;;;;;;5050139;28;20267;-41
2022/02/11 14:39:18;;;;;;;4.97;1.73;;;11.20;42.30;;;;;;5043727;28;20608;-41
2022/02/11 14:41:55;;;;;;;2.70;1.63;;;11.20;42.00;;;;;;5040181;28;20243;-42
2022/02/11 14:44:31;;;;;;;3.77;1.90;;;10.90;42.50;;;;;;5052756;28;20435;-41
2022/02/11 14:47:03;;;;;;;2.53;1.43;;;10.80;42.50;;;;;;5051268;28;20439;-41
2022/02/11 14:49:29;;;;;;;4.43;2.03;;;10.80;43.10;;;;;;5047570;28;20826;-41
2022/02/11 14:52:03;;;;;;;4.80;2.07;;;10.80;42.90;;;;;;5042107;28;20485;-42
2022/02/11 14:54:31;;;;;;;4.23;1.43;;;10.60;42.70;;;;;;5043725;28;20859;-42
2022/02/11 14:56:57;;;;;;;3.17;1.60;;;10.30;43.00;;;;;;5040993;28;20443;-42
2022/02/11 14:59:23;;;;;;;2.80;2.13;;;10.50;42.50;;;;;;5037867;28;21110;-41
2022/02/11 15:01:50;;;;;;;4.97;2.03;;;10.70;42.90;;;;;;5043124;28;20439;-41
2022/02/11 15:04:16;;;;;;;10.00;6.27;;;10.80;43.10;;;;;;5038918;28;20458;-42
2022/02/11 15:06:46;;;;;;;10.60;4.40;;;10.90;43.40;;;;;;5047710;28;20446;-41
2022/02/11 15:09:11;;;;;;;8.37;4.20;;;10.70;43.70;;;;;;5044379;28;20432;-42
2022/02/11 15:11:37;;;;;;;1.93;1.73;;;10.40;43.60;;;;;;5044680;28;20485;-42
2022/02/11 15:14:03;;;;;;;4.50;1.97;;;10.40;44.10;;;;;;5045054;28;20228;-42
2022/02/11 15:16:29;;;;;;;3.97;2.10;;;10.40;43.20;;;;;;5043917;28;20431;-40
2022/02/11 15:18:54;;;;;;;3.60;1.60;;;10.30;43.00;;;;;;5038200;28;20283;-41
2022/02/11 15:21:21;;;;;;;7.00;1.57;;;10.20;42.70;;;;;;5039133;28;20256;-41
2022/02/11 15:23:47;;;;;;;3.27;1.30;;;10.10;42.80;;;;;;5046501;28;20300;-43
2022/02/11 15:26:16;;;;;;;4.50;2.13;;;10.20;43.10;;;;;;5047320;28;20431;-41
2022/02/11 15:28:41;;;;;;;2.20;1.60;;;10.40;42.50;;;;;;5045531;28;20462;-41
2022/02/11 15:31:12;;;;;;;2.00;1.57;;;10.40;42.60;;;;;;5044474;28;20494;-43
2022/02/11 15:33:39;;;;;;;1.90;1.70;;;10.60;42.00;;;;;;5046440;28;20196;-41
2022/02/11 15:36:06;;;;;;;6.70;3.37;;;10.50;41.80;;;;;;5039731;28;20465;-41
2022/02/11 15:38:31;;;;;;;3.43;1.73;;;10.50;41.80;;;;;;5041710;28;20647;-41
2022/02/11 15:40:57;;;;;;;4.30;1.83;;;10.50;42.20;;;;;;5039345;28;20428;-41
2022/02/11 15:43:23;;;;;;;3.73;2.00;;;10.40;42.50;;;;;;5042270;28;20596;-41
2022/02/11 15:45:49;;;;;;;6.60;2.23;;;10.40;42.60;;;;;;5043108;28;20242;-41
2022/02/11 15:48:15;;;;;;;4.10;1.93;;;10.40;43.00;;;;;;5038722;28;20443;-41
2022/02/11 15:50:41;;;;;;;4.37;2.23;;;10.40;43.50;;;;;;5043196;28;20195;-41
2022/02/11 15:53:11;;;;;;;4.90;2.03;;;10.50;43.60;;;;;;5032391;28;20838;-41
2022/02/11 15:55:37;;;;;;;4.60;2.13;;;10.40;44.00;;;;;;5035297;28;20208;-41
2022/02/11 15:58:03;;;;;;;4.57;2.17;;;10.20;45.00;;;;;;5035471;28;20497;-41
2022/02/11 16:00:29;;;;;;;4.47;2.83;;;10.40;45.10;;;;;;5046015;28;20851;-41
2022/02/11 16:02:54;;;;;;;3.83;2.10;;;10.30;44.40;;;;;;5040255;28;20279;-41
2022/02/11 16:05:20;;;;;;;5.40;2.33;;;10.30;44.70;;;;;;5038682;28;20455;-41
2022/02/11 16:07:45;;;;;;;6.53;2.73;;;10.30;44.90;;;;;;5044547;28;20536;-41
2022/02/11 16:10:11;;;;;;;4.40;2.50;;;10.40;45.30;;;;;;5042850;28;20459;-41
2022/02/11 16:12:37;;;;;;;5.57;3.20;;;10.60;45.80;;;;;;5040695;28;20195;-41
2022/02/11 16:15:05;;;;;;;13.33;6.80;;;10.60;46.20;;;;;;5034621;28;20212;-41
2022/02/11 16:17:32;;;;;;;4.83;4.37;;;10.90;46.90;;;;;;5040326;28;20445;-41
2022/02/11 16:19:59;;;;;;;6.90;4.67;;;11.10;46.90;;;;;;5036695;28;20435;-41
2022/02/11 16:22:26;;;;;;;3.93;3.17;;;11.20;46.80;;;;;;5045141;28;20521;-41
2022/02/11 16:24:52;;;;;;;7.23;3.47;;;11.20;46.60;;;;;;5045075;28;20439;-41
2022/02/11 16:27:19;;;;;;;7.37;4.60;;;11.40;46.80;;;;;;5051546;28;20455;-42
2022/02/11 16:29:45;;;;;;;3.87;3.50;;;11.40;47.70;;;;;;5033907;28;20444;-41
2022/02/11 16:32:11;;;;;;;4.23;3.40;;;11.50;48.00;;;;;;5034283;28;20432;-41
2022/02/11 16:34:37;;;;;;;7.03;3.30;;;11.50;48.30;;;;;;5043993;28;20653;-41
2022/02/11 16:37:03;;;;;;;5.57;2.73;;;11.50;48.40;;;;;;5047787;28;20196;-41
2022/02/11 16:39:29;;;;;;;7.60;2.80;;;11.50;48.90;;;;;;5040468;28;20447;-41
2022/02/11 16:41:55;;;;;;;4.13;2.90;;;11.20;50.40;;;;;;5041281;28;20453;-41
2022/02/11 16:44:21;;;;;;;4.93;2.63;;;11.00;51.10;;;;;;5038298;28;20194;-41
2022/02/11 16:46:47;;;;;;;5.00;2.83;;;10.90;51.80;;;;;;5044152;28;20215;-41
2022/02/11 16:49:17;;;;;;;4.20;2.93;;;10.90;52.30;;;;;;5028855;28;20550;-41
2022/02/11 16:51:44;;;;;;;7.03;3.77;;;10.90;52.70;;;;;;5045110;28;20431;-41